sim
Sign-in with your pilot id or email,
or register
Callsign
Passwort

Schedule Details

Flight Number: OEO7993
Departure: Miami International Airport (KMIA) at 22:55
Arrival: Munich Airport (EDDM) at 08:50

Weather Information
Getting current METAR information for KMIA 261753Z COR 26006KT 10SM VCTS FEW030CB BKN038 BKN070 BKN250 33/24 A2997 RMK AO2 LTG DSNT S AND SW TSE53 SLP148 CB NW-N AND DSNT SE-S MOV E T03280239 10328 20261 58017
Getting current METAR information for EDDM 261750Z 25022G32KT 9999 -RA BKN023 OVC042 07/04 Q1001 NOSIG

Schedule Frequency

Route Map